首页
METAR-TAF:

METAR-TAF

机场 :

Eppley Airfield

奥马哈, 內布拉斯加州, 美国

纬度: 41-18-37N, 经度: 095-53-57W, 海拔: 299米

当前天气观测

该预报发布于18分钟前的07:52 UTC
风速18节,风向西转西北,有时为26节阵风
温度 7°C
湿度 70%
气压 1005 hPa
能見度: 16.1公里
多云层高于3700英尺
阴天层高于13000英尺

METAR: KOMA 290752Z 29018G26KT 10SM BKN037 OVC130 07/02 A2969 RMK AO2 PK WND 31034/0731 SLP054 T00670022

时间: 03:10 (08:10 UTC)

预报

该预报发布于2小时和50分钟前的05:20 UTC
预报有效从29日的 06点(UTC)到 30日的 06点(UTC)
风速20节,风向西北,有时为30节阵风
能見度: 10公里
阴天层高于1500英尺
从 29日的 0900点(UTC)
风速15节,风向西北,有时为25节阵风
能見度: 10公里
天空无云
从 29日的 2300点(UTC)
风速9节,风向北转西北
能見度: 10公里
天空无云

TAF: KOMA 290520Z 2906/3006 31020G30KT P6SM OVC015 FM290900 31015G25KT P6SM SKC FM292300 33009KT P6SM SKC

超过4000个机场的气象观测和天气预报(METAR&TAF报告)。

可查询的气象台以黄色和红色小点在地图上表示。

将鼠标移到小点上方,可查看气象台名称。

然后点击查看天气观测和预报。

如需切换地图:点击带黑十字的绿色按钮放大地图;点击带横线的绿色按钮缩小地图;或者点击绿色箭头查看邻近地区的地图。


METAR-TAF: